TAF KJAX
AMD KJAX 091026Z 0910/1006 03003KT P6SM SCT007 OVC012 FM091500 05007KT P6SM SCT012 OVC020 FM091800 08006KT P6SM SCT015 BKN025 BKN200 FM100000 05003KT P6SM SCT025 BKN040 BKN200 FM100300 12003KT 3SM BR SCT004 BKN012=
METAR KJAX
KJAX 090956Z 00000KT 10SM OVC012 12/11 A3007 RMK AO2 SLP184 T01170111 ? ?
SPECI KJAX 090953Z 00000KT 10SM OVC012 12/12 A3007 RMK AO2 ? ?
KJAX 090856Z 35004KT 10SM OVC009 13/12 A3008 RMK AO2 SLP186 T01280122 53004 ? ?
KJAX 090756Z 04007KT 10SM BKN009 OVC025 13/12 A3007 RMK AO2 CIG 006V011 SLP184 T01280117 ?
SPECI KJAX 090744Z 03008KT 10SM BKN009 OVC025 13/12 A3007 RMK AO2 T01280117 ? ?
WC KJAX
WS KJAX
WV KJAX